sensor_id;sensor_type;location;lat;lon;timestamp;P1;durP1;ratioP1;P2;durP2;ratioP2
14722;SDS011;7452;55.594;12.986;2022-07-29T00:00:23;5.63;;;3.20;;
14722;SDS011;7452;55.594;12.986;2022-07-29T00:02:50;6.20;;;3.07;;
14722;SDS011;7452;55.594;12.986;2022-07-29T00:05:17;6.53;;;3.53;;
14722;SDS011;7452;55.594;12.986;2022-07-29T00:07:45;4.50;;;3.47;;
14722;SDS011;7452;55.594;12.986;2022-07-29T00:10:12;4.97;;;3.20;;
14722;SDS011;7452;55.594;12.986;2022-07-29T00:12:39;9.90;;;7.90;;
14722;SDS011;7452;55.594;12.986;2022-07-29T00:15:06;14.83;;;10.73;;
14722;SDS011;7452;55.594;12.986;2022-07-29T00:17:34;16.80;;;11.90;;
14722;SDS011;7452;55.594;12.986;2022-07-29T00:20:01;25.67;;;17.27;;
14722;SDS011;7452;55.594;12.986;2022-07-29T00:22:28;28.90;;;19.83;;
14722;SDS011;7452;55.594;12.986;2022-07-29T00:24:56;29.70;;;21.33;;
14722;SDS011;7452;55.594;12.986;2022-07-29T00:27:23;36.53;;;24.60;;
14722;SDS011;7452;55.594;12.986;2022-07-29T00:29:50;31.47;;;23.30;;
14722;SDS011;7452;55.594;12.986;2022-07-29T00:32:17;34.20;;;25.23;;
14722;SDS011;7452;55.594;12.986;2022-07-29T00:34:44;33.93;;;26.10;;
14722;SDS011;7452;55.594;12.986;2022-07-29T00:37:28;43.43;;;32.93;;
14722;SDS011;7452;55.594;12.986;2022-07-29T00:39:57;38.07;;;25.90;;
14722;SDS011;7452;55.594;12.986;2022-07-29T00:42:23;36.00;;;25.77;;
14722;SDS011;7452;55.594;12.986;2022-07-29T00:44:50;28.27;;;21.47;;
14722;SDS011;7452;55.594;12.986;2022-07-29T00:47:17;24.87;;;18.33;;
14722;SDS011;7452;55.594;12.986;2022-07-29T00:49:44;20.23;;;15.77;;
14722;SDS011;7452;55.594;12.986;2022-07-29T00:52:12;19.47;;;14.83;;
14722;SDS011;7452;55.594;12.986;2022-07-29T00:54:39;20.00;;;13.10;;
14722;SDS011;7452;55.594;12.986;2022-07-29T00:57:08;18.10;;;12.17;;
14722;SDS011;7452;55.594;12.986;2022-07-29T00:59:35;14.67;;;11.73;;
14722;SDS011;7452;55.594;12.986;2022-07-29T01:02:02;24.57;;;19.10;;
14722;SDS011;7452;55.594;12.986;2022-07-29T01:04:29;16.30;;;11.90;;
14722;SDS011;7452;55.594;12.986;2022-07-29T01:06:57;16.90;;;8.70;;
14722;SDS011;7452;55.594;12.986;2022-07-29T01:09:26;13.97;;;9.00;;
14722;SDS011;7452;55.594;12.986;2022-07-29T01:11:54;11.07;;;7.70;;
14722;SDS011;7452;55.594;12.986;2022-07-29T01:14:22;10.67;;;7.47;;
14722;SDS011;7452;55.594;12.986;2022-07-29T01:16:51;10.70;;;7.10;;
14722;SDS011;7452;55.594;12.986;2022-07-29T01:19:27;10.50;;;6.23;;
14722;SDS011;7452;55.594;12.986;2022-07-29T01:22:13;7.90;;;5.87;;
14722;SDS011;7452;55.594;12.986;2022-07-29T01:25:02;7.90;;;5.53;;
14722;SDS011;7452;55.594;12.986;2022-07-29T01:27:50;10.30;;;4.90;;
14722;SDS011;7452;55.594;12.986;2022-07-29T01:30:38;7.83;;;4.57;;
14722;SDS011;7452;55.594;12.986;2022-07-29T01:33:10;8.00;;;4.27;;
14722;SDS011;7452;55.594;12.986;2022-07-29T01:36:00;6.37;;;4.27;;
14722;SDS011;7452;55.594;12.986;2022-07-29T01:38:30;9.93;;;4.43;;
14722;SDS011;7452;55.594;12.986;2022-07-29T01:40:58;7.47;;;3.40;;
14722;SDS011;7452;55.594;12.986;2022-07-29T01:43:32;4.27;;;3.27;;
14722;SDS011;7452;55.594;12.986;2022-07-29T01:46:05;5.10;;;3.40;;
14722;SDS011;7452;55.594;12.986;2022-07-29T01:48:37;6.70;;;3.20;;
14722;SDS011;7452;55.594;12.986;2022-07-29T01:51:07;7.57;;;3.23;;
14722;SDS011;7452;55.594;12.986;2022-07-29T01:53:38;7.97;;;3.20;;
14722;SDS011;7452;55.594;12.986;2022-07-29T01:56:12;3.67;;;2.73;;
14722;SDS011;7452;55.594;12.986;2022-07-29T01:58:41;8.90;;;2.83;;
14722;SDS011;7452;55.594;12.986;2022-07-29T02:01:11;5.40;;;3.13;;
14722;SDS011;7452;55.594;12.986;2022-07-29T02:03:39;4.27;;;2.30;;
14722;SDS011;7452;55.594;12.986;2022-07-29T02:06:10;4.03;;;2.40;;
14722;SDS011;7452;55.594;12.986;2022-07-29T02:08:38;5.07;;;2.70;;
14722;SDS011;7452;55.594;12.986;2022-07-29T02:11:06;4.90;;;2.70;;
14722;SDS011;7452;55.594;12.986;2022-07-29T02:13:35;4.90;;;2.63;;
14722;SDS011;7452;55.594;12.986;2022-07-29T02:16:04;8.47;;;3.10;;
14722;SDS011;7452;55.594;12.986;2022-07-29T02:18:34;5.43;;;2.70;;
14722;SDS011;7452;55.594;12.986;2022-07-29T02:21:03;4.57;;;2.60;;
14722;SDS011;7452;55.594;12.986;2022-07-29T02:23:31;5.73;;;2.57;;
14722;SDS011;7452;55.594;12.986;2022-07-29T02:26:01;3.97;;;2.40;;
14722;SDS011;7452;55.594;12.986;2022-07-29T02:28:29;4.17;;;2.40;;
14722;SDS011;7452;55.594;12.986;2022-07-29T02:30:59;5.87;;;2.57;;
14722;SDS011;7452;55.594;12.986;2022-07-29T02:33:28;7.00;;;2.60;;
14722;SDS011;7452;55.594;12.986;2022-07-29T02:35:58;3.60;;;2.30;;
14722;SDS011;7452;55.594;12.986;2022-07-29T02:38:27;4.13;;;2.23;;
14722;SDS011;7452;55.594;12.986;2022-07-29T02:41:20;2.93;;;2.23;;
14722;SDS011;7452;55.594;12.986;2022-07-29T02:43:53;5.13;;;2.33;;
14722;SDS011;7452;55.594;12.986;2022-07-29T02:46:25;5.03;;;2.60;;
14722;SDS011;7452;55.594;12.986;2022-07-29T02:48:57;6.43;;;2.40;;
14722;SDS011;7452;55.594;12.986;2022-07-29T02:51:33;5.03;;;2.87;;
14722;SDS011;7452;55.594;12.986;2022-07-29T02:54:07;3.40;;;2.30;;
14722;SDS011;7452;55.594;12.986;2022-07-29T02:56:36;4.17;;;2.50;;
14722;SDS011;7452;55.594;12.986;2022-07-29T02:59:07;3.10;;;2.30;;
14722;SDS011;7452;55.594;12.986;2022-07-29T03:01:36;4.13;;;2.30;;
14722;SDS011;7452;55.594;12.986;2022-07-29T03:04:08;4.57;;;2.40;;
14722;SDS011;7452;55.594;12.986;2022-07-29T03:06:38;5.53;;;2.70;;
14722;SDS011;7452;55.594;12.986;2022-07-29T03:09:07;3.93;;;2.70;;
14722;SDS011;7452;55.594;12.986;2022-07-29T03:11:36;3.80;;;2.20;;
14722;SDS011;7452;55.594;12.986;2022-07-29T03:14:04;2.97;;;2.23;;
14722;SDS011;7452;55.594;12.986;2022-07-29T03:16:31;6.40;;;2.63;;
14722;SDS011;7452;55.594;12.986;2022-07-29T03:19:02;4.30;;;2.57;;
14722;SDS011;7452;55.594;12.986;2022-07-29T03:21:30;3.47;;;2.43;;
14722;SDS011;7452;55.594;12.986;2022-07-29T03:23:59;4.00;;;2.77;;
14722;SDS011;7452;55.594;12.986;2022-07-29T03:26:26;4.70;;;2.40;;
14722;SDS011;7452;55.594;12.986;2022-07-29T03:28:53;5.10;;;2.60;;
14722;SDS011;7452;55.594;12.986;2022-07-29T03:31:21;4.83;;;2.70;;
14722;SDS011;7452;55.594;12.986;2022-07-29T03:33:48;5.23;;;2.73;;
14722;SDS011;7452;55.594;12.986;2022-07-29T03:36:14;6.20;;;2.80;;
14722;SDS011;7452;55.594;12.986;2022-07-29T03:38:42;7.03;;;2.93;;
14722;SDS011;7452;55.594;12.986;2022-07-29T03:41:12;6.33;;;2.73;;
14722;SDS011;7452;55.594;12.986;2022-07-29T03:43:40;5.73;;;2.90;;
14722;SDS011;7452;55.594;12.986;2022-07-29T03:46:09;6.93;;;3.70;;
14722;SDS011;7452;55.594;12.986;2022-07-29T03:48:39;4.90;;;3.13;;
14722;SDS011;7452;55.594;12.986;2022-07-29T03:51:10;4.13;;;2.77;;
14722;SDS011;7452;55.594;12.986;2022-07-29T03:53:38;4.90;;;3.33;;
14722;SDS011;7452;55.594;12.986;2022-07-29T03:56:05;6.33;;;3.30;;
14722;SDS011;7452;55.594;12.986;2022-07-29T03:58:36;5.23;;;3.20;;
14722;SDS011;7452;55.594;12.986;2022-07-29T04:01:04;6.77;;;3.37;;
14722;SDS011;7452;55.594;12.986;2022-07-29T04:03:31;6.00;;;3.30;;
14722;SDS011;7452;55.594;12.986;2022-07-29T04:06:00;8.73;;;3.80;;
14722;SDS011;7452;55.594;12.986;2022-07-29T04:08:30;4.60;;;3.30;;
14722;SDS011;7452;55.594;12.986;2022-07-29T04:10:58;6.13;;;3.63;;
14722;SDS011;7452;55.594;12.986;2022-07-29T04:13:25;6.67;;;3.63;;
14722;SDS011;7452;55.594;12.986;2022-07-29T04:15:53;6.80;;;3.77;;
14722;SDS011;7452;55.594;12.986;2022-07-29T04:18:20;8.63;;;4.30;;
14722;SDS011;7452;55.594;12.986;2022-07-29T04:20:47;7.73;;;3.97;;
14722;SDS011;7452;55.594;12.986;2022-07-29T04:23:14;10.97;;;5.30;;
14722;SDS011;7452;55.594;12.986;2022-07-29T04:25:41;6.73;;;4.40;;
14722;SDS011;7452;55.594;12.986;2022-07-29T04:28:09;5.73;;;4.40;;
14722;SDS011;7452;55.594;12.986;2022-07-29T04:30:37;6.63;;;3.97;;
14722;SDS011;7452;55.594;12.986;2022-07-29T04:33:06;8.33;;;4.40;;
14722;SDS011;7452;55.594;12.986;2022-07-29T04:35:34;5.07;;;4.40;;
14722;SDS011;7452;55.594;12.986;2022-07-29T04:38:02;6.13;;;4.30;;
14722;SDS011;7452;55.594;12.986;2022-07-29T04:40:30;8.53;;;4.63;;
14722;SDS011;7452;55.594;12.986;2022-07-29T04:42:58;11.57;;;4.60;;
14722;SDS011;7452;55.594;12.986;2022-07-29T04:45:25;7.03;;;4.87;;
14722;SDS011;7452;55.594;12.986;2022-07-29T04:47:52;7.77;;;5.00;;
14722;SDS011;7452;55.594;12.986;2022-07-29T04:50:21;9.33;;;6.47;;
14722;SDS011;7452;55.594;12.986;2022-07-29T04:52:48;6.30;;;4.40;;
14722;SDS011;7452;55.594;12.986;2022-07-29T04:55:15;6.43;;;4.60;;
14722;SDS011;7452;55.594;12.986;2022-07-29T04:57:42;9.73;;;4.47;;
14722;SDS011;7452;55.594;12.986;2022-07-29T05:00:09;5.63;;;4.23;;
14722;SDS011;7452;55.594;12.986;2022-07-29T05:02:37;5.80;;;4.33;;
14722;SDS011;7452;55.594;12.986;2022-07-29T05:05:04;9.47;;;4.30;;
14722;SDS011;7452;55.594;12.986;2022-07-29T05:07:33;6.47;;;4.20;;
14722;SDS011;7452;55.594;12.986;2022-07-29T05:10:00;8.60;;;4.37;;
14722;SDS011;7452;55.594;12.986;2022-07-29T05:12:27;8.73;;;4.50;;
14722;SDS011;7452;55.594;12.986;2022-07-29T05:14:54;9.47;;;4.67;;
14722;SDS011;7452;55.594;12.986;2022-07-29T05:17:21;7.37;;;4.03;;
14722;SDS011;7452;55.594;12.986;2022-07-29T05:19:48;6.93;;;4.80;;
14722;SDS011;7452;55.594;12.986;2022-07-29T05:22:16;8.80;;;4.70;;
14722;SDS011;7452;55.594;12.986;2022-07-29T05:24:45;7.63;;;4.10;;
14722;SDS011;7452;55.594;12.986;2022-07-29T05:27:12;7.90;;;4.20;;
14722;SDS011;7452;55.594;12.986;2022-07-29T05:29:39;9.37;;;5.07;;
14722;SDS011;7452;55.594;12.986;2022-07-29T05:32:06;6.77;;;4.20;;
14722;SDS011;7452;55.594;12.986;2022-07-29T05:34:33;8.13;;;4.33;;
14722;SDS011;7452;55.594;12.986;2022-07-29T05:37:00;8.40;;;4.40;;
14722;SDS011;7452;55.594;12.986;2022-07-29T05:39:27;6.17;;;4.17;;
14722;SDS011;7452;55.594;12.986;2022-07-29T05:41:55;5.43;;;3.80;;
14722;SDS011;7452;55.594;12.986;2022-07-29T05:44:22;6.77;;;3.67;;
14722;SDS011;7452;55.594;12.986;2022-07-29T05:46:50;6.13;;;3.23;;
14722;SDS011;7452;55.594;12.986;2022-07-29T05:49:17;7.07;;;3.33;;
14722;SDS011;7452;55.594;12.986;2022-07-29T05:51:44;7.90;;;3.73;;
14722;SDS011;7452;55.594;12.986;2022-07-29T05:54:11;8.17;;;3.53;;
14722;SDS011;7452;55.594;12.986;2022-07-29T05:56:38;8.30;;;3.60;;
14722;SDS011;7452;55.594;12.986;2022-07-29T05:59:06;9.37;;;3.60;;
14722;SDS011;7452;55.594;12.986;2022-07-29T06:01:33;7.17;;;3.40;;
14722;SDS011;7452;55.594;12.986;2022-07-29T06:04:04;6.83;;;3.40;;
14722;SDS011;7452;55.594;12.986;2022-07-29T06:06:31;6.00;;;3.20;;
14722;SDS011;7452;55.594;12.986;2022-07-29T06:08:58;8.00;;;4.20;;
14722;SDS011;7452;55.594;12.986;2022-07-29T06:11:25;5.03;;;3.03;;
14722;SDS011;7452;55.594;12.986;2022-07-29T06:13:52;7.57;;;3.33;;
14722;SDS011;7452;55.594;12.986;2022-07-29T06:16:21;4.13;;;2.80;;
14722;SDS011;7452;55.594;12.986;2022-07-29T06:18:48;6.37;;;2.57;;
14722;SDS011;7452;55.594;12.986;2022-07-29T06:21:15;7.57;;;2.60;;
14722;SDS011;7452;55.594;12.986;2022-07-29T06:23:42;7.73;;;3.07;;
14722;SDS011;7452;55.594;12.986;2022-07-29T06:26:10;7.23;;;3.00;;
14722;SDS011;7452;55.594;12.986;2022-07-29T06:28:37;4.67;;;2.20;;
14722;SDS011;7452;55.594;12.986;2022-07-29T06:31:04;4.13;;;2.23;;
14722;SDS011;7452;55.594;12.986;2022-07-29T06:33:33;6.87;;;2.60;;
14722;SDS011;7452;55.594;12.986;2022-07-29T06:36:00;5.83;;;2.80;;
14722;SDS011;7452;55.594;12.986;2022-07-29T06:38:29;6.37;;;2.47;;
14722;SDS011;7452;55.594;12.986;2022-07-29T06:40:56;6.67;;;2.63;;
14722;SDS011;7452;55.594;12.986;2022-07-29T06:43:25;4.97;;;3.03;;
14722;SDS011;7452;55.594;12.986;2022-07-29T06:45:52;5.73;;;2.67;;
14722;SDS011;7452;55.594;12.986;2022-07-29T06:48:19;4.77;;;2.73;;
14722;SDS011;7452;55.594;12.986;2022-07-29T06:50:47;4.70;;;2.40;;
14722;SDS011;7452;55.594;12.986;2022-07-29T06:53:14;8.10;;;2.70;;
14722;SDS011;7452;55.594;12.986;2022-07-29T06:55:41;5.33;;;2.30;;
14722;SDS011;7452;55.594;12.986;2022-07-29T06:58:08;5.73;;;2.67;;
14722;SDS011;7452;55.594;12.986;2022-07-29T07:00:35;6.70;;;2.33;;
14722;SDS011;7452;55.594;12.986;2022-07-29T07:03:03;5.60;;;2.67;;
14722;SDS011;7452;55.594;12.986;2022-07-29T07:05:29;4.90;;;2.67;;
14722;SDS011;7452;55.594;12.986;2022-07-29T07:07:58;4.40;;;2.23;;
14722;SDS011;7452;55.594;12.986;2022-07-29T07:10:25;4.30;;;2.50;;
14722;SDS011;7452;55.594;12.986;2022-07-29T07:12:52;8.93;;;2.53;;
14722;SDS011;7452;55.594;12.986;2022-07-29T07:15:19;6.20;;;2.67;;
14722;SDS011;7452;55.594;12.986;2022-07-29T07:17:47;6.10;;;2.40;;
14722;SDS011;7452;55.594;12.986;2022-07-29T07:20:14;4.97;;;2.57;;
14722;SDS011;7452;55.594;12.986;2022-07-29T07:22:41;5.73;;;2.80;;
14722;SDS011;7452;55.594;12.986;2022-07-29T07:25:10;6.37;;;2.73;;
14722;SDS011;7452;55.594;12.986;2022-07-29T07:27:39;5.60;;;2.50;;
14722;SDS011;7452;55.594;12.986;2022-07-29T07:30:06;5.33;;;2.60;;
14722;SDS011;7452;55.594;12.986;2022-07-29T07:32:34;4.73;;;2.40;;
14722;SDS011;7452;55.594;12.986;2022-07-29T07:35:01;5.77;;;2.23;;
14722;SDS011;7452;55.594;12.986;2022-07-29T07:37:29;5.30;;;2.67;;
14722;SDS011;7452;55.594;12.986;2022-07-29T07:39:56;7.90;;;2.77;;
14722;SDS011;7452;55.594;12.986;2022-07-29T07:42:25;4.80;;;2.40;;
14722;SDS011;7452;55.594;12.986;2022-07-29T07:44:52;4.07;;;2.50;;
14722;SDS011;7452;55.594;12.986;2022-07-29T07:47:19;5.37;;;2.30;;
14722;SDS011;7452;55.594;12.986;2022-07-29T07:49:48;2.63;;;2.00;;
14722;SDS011;7452;55.594;12.986;2022-07-29T07:52:16;5.97;;;2.13;;
14722;SDS011;7452;55.594;12.986;2022-07-29T07:54:44;4.67;;;2.50;;
14722;SDS011;7452;55.594;12.986;2022-07-29T07:57:11;5.10;;;2.37;;
14722;SDS011;7452;55.594;12.986;2022-07-29T07:59:40;3.37;;;2.07;;
14722;SDS011;7452;55.594;12.986;2022-07-29T08:02:07;4.20;;;2.03;;
14722;SDS011;7452;55.594;12.986;2022-07-29T08:04:34;2.53;;;1.83;;
14722;SDS011;7452;55.594;12.986;2022-07-29T08:07:02;3.23;;;1.70;;
14722;SDS011;7452;55.594;12.986;2022-07-29T08:09:29;4.43;;;1.80;;
14722;SDS011;7452;55.594;12.986;2022-07-29T08:11:56;3.07;;;1.70;;
14722;SDS011;7452;55.594;12.986;2022-07-29T08:14:24;3.13;;;1.70;;
14722;SDS011;7452;55.594;12.986;2022-07-29T08:16:52;4.60;;;1.53;;
14722;SDS011;7452;55.594;12.986;2022-07-29T08:19:19;4.03;;;1.73;;
14722;SDS011;7452;55.594;12.986;2022-07-29T08:21:48;3.87;;;1.50;;
14722;SDS011;7452;55.594;12.986;2022-07-29T08:24:18;2.53;;;1.53;;
14722;SDS011;7452;55.594;12.986;2022-07-29T08:27:03;2.50;;;1.77;;
14722;SDS011;7452;55.594;12.986;2022-07-29T08:29:30;5.90;;;1.73;;
14722;SDS011;7452;55.594;12.986;2022-07-29T08:31:58;3.80;;;1.60;;
14722;SDS011;7452;55.594;12.986;2022-07-29T08:34:26;5.03;;;1.77;;
14722;SDS011;7452;55.594;12.986;2022-07-29T08:36:53;3.10;;;1.50;;
14722;SDS011;7452;55.594;12.986;2022-07-29T08:39:21;3.47;;;1.90;;
14722;SDS011;7452;55.594;12.986;2022-07-29T08:41:48;3.83;;;1.40;;
14722;SDS011;7452;55.594;12.986;2022-07-29T08:44:16;2.53;;;1.53;;
14722;SDS011;7452;55.594;12.986;2022-07-29T08:46:43;3.03;;;1.60;;
14722;SDS011;7452;55.594;12.986;2022-07-29T08:49:11;4.00;;;1.70;;
14722;SDS011;7452;55.594;12.986;2022-07-29T08:51:39;4.47;;;1.60;;
14722;SDS011;7452;55.594;12.986;2022-07-29T08:54:07;4.27;;;1.80;;
14722;SDS011;7452;55.594;12.986;2022-07-29T08:56:35;4.73;;;1.63;;
14722;SDS011;7452;55.594;12.986;2022-07-29T08:59:03;2.53;;;1.70;;
14722;SDS011;7452;55.594;12.986;2022-07-29T09:01:32;3.20;;;1.60;;
14722;SDS011;7452;55.594;12.986;2022-07-29T09:04:00;1.57;;;1.10;;
14722;SDS011;7452;55.594;12.986;2022-07-29T09:06:30;3.20;;;1.40;;
14722;SDS011;7452;55.594;12.986;2022-07-29T09:09:00;4.07;;;1.17;;
14722;SDS011;7452;55.594;12.986;2022-07-29T09:11:29;3.53;;;1.40;;
14722;SDS011;7452;55.594;12.986;2022-07-29T09:13:58;3.00;;;1.17;;
14722;SDS011;7452;55.594;12.986;2022-07-29T09:16:25;5.40;;;1.50;;
14722;SDS011;7452;55.594;12.986;2022-07-29T09:18:52;3.60;;;1.50;;
14722;SDS011;7452;55.594;12.986;2022-07-29T09:21:18;1.20;;;1.00;;
14722;SDS011;7452;55.594;12.986;2022-07-29T09:24:06;2.90;;;1.20;;
14722;SDS011;7452;55.594;12.986;2022-07-29T09:26:36;4.00;;;1.30;;
14722;SDS011;7452;55.594;12.986;2022-07-29T09:29:08;4.03;;;1.90;;
14722;SDS011;7452;55.594;12.986;2022-07-29T09:31:37;3.80;;;1.20;;
14722;SDS011;7452;55.594;12.986;2022-07-29T09:34:05;2.40;;;1.20;;
14722;SDS011;7452;55.594;12.986;2022-07-29T09:36:38;2.57;;;1.37;;
14722;SDS011;7452;55.594;12.986;2022-07-29T09:39:07;2.70;;;1.37;;
14722;SDS011;7452;55.594;12.986;2022-07-29T09:41:45;2.97;;;1.10;;
14722;SDS011;7452;55.594;12.986;2022-07-29T09:44:13;2.47;;;1.60;;
14722;SDS011;7452;55.594;12.986;2022-07-29T09:46:41;2.80;;;1.30;;
14722;SDS011;7452;55.594;12.986;2022-07-29T09:49:30;3.43;;;1.37;;
14722;SDS011;7452;55.594;12.986;2022-07-29T09:52:03;2.50;;;1.30;;
14722;SDS011;7452;55.594;12.986;2022-07-29T09:54:33;2.53;;;1.00;;
14722;SDS011;7452;55.594;12.986;2022-07-29T09:57:03;2.43;;;1.30;;
14722;SDS011;7452;55.594;12.986;2022-07-29T09:59:30;1.53;;;1.30;;
14722;SDS011;7452;55.594;12.986;2022-07-29T10:01:58;2.63;;;1.17;;
14722;SDS011;7452;55.594;12.986;2022-07-29T10:04:36;1.27;;;1.00;;
14722;SDS011;7452;55.594;12.986;2022-07-29T10:07:04;1.60;;;1.00;;
14722;SDS011;7452;55.594;12.986;2022-07-29T10:09:33;3.03;;;1.37;;
14722;SDS011;7452;55.594;12.986;2022-07-29T10:12:08;1.40;;;0.93;;
14722;SDS011;7452;55.594;12.986;2022-07-29T10:14:36;4.27;;;2.30;;
14722;SDS011;7452;55.594;12.986;2022-07-29T10:17:04;1.55;;;0.90;;
14722;SDS011;7452;55.594;12.986;2022-07-29T10:19:33;3.88;;;1.20;;
14722;SDS011;7452;55.594;12.986;2022-07-29T10:22:01;1.50;;;0.95;;
14722;SDS011;7452;55.594;12.986;2022-07-29T10:24:29;1.92;;;0.98;;
14722;SDS011;7452;55.594;12.986;2022-07-29T10:27:00;3.03;;;0.85;;
14722;SDS011;7452;55.594;12.986;2022-07-29T10:29:28;2.35;;;1.08;;
14722;SDS011;7452;55.594;12.986;2022-07-29T10:32:00;2.70;;;0.90;;
14722;SDS011;7452;55.594;12.986;2022-07-29T10:34:51;2.95;;;0.98;;
14722;SDS011;7452;55.594;12.986;2022-07-29T10:37:28;4.32;;;1.08;;
14722;SDS011;7452;55.594;12.986;2022-07-29T10:40:07;3.05;;;1.02;;
14722;SDS011;7452;55.594;12.986;2022-07-29T10:43:04;3.00;;;1.27;;
14722;SDS011;7452;55.594;12.986;2022-07-29T10:45:41;2.45;;;0.93;;
14722;SDS011;7452;55.594;12.986;2022-07-29T10:48:08;2.00;;;1.10;;
14722;SDS011;7452;55.594;12.986;2022-07-29T10:50:54;2.05;;;0.93;;
14722;SDS011;7452;55.594;12.986;2022-07-29T10:53:24;1.70;;;0.98;;
14722;SDS011;7452;55.594;12.986;2022-07-29T10:56:22;1.58;;;0.80;;
14722;SDS011;7452;55.594;12.986;2022-07-29T11:01:53;4.22;;;3.00;;
14722;SDS011;7452;55.594;12.986;2022-07-29T11:07:28;3.30;;;0.77;;
14722;SDS011;7452;55.594;12.986;2022-07-29T11:12:47;1.92;;;0.90;;
14722;SDS011;7452;55.594;12.986;2022-07-29T11:15:17;2.10;;;1.10;;
14722;SDS011;7452;55.594;12.986;2022-07-29T11:18:08;4.90;;;0.90;;
14722;SDS011;7452;55.594;12.986;2022-07-29T11:20:38;1.67;;;0.82;;
14722;SDS011;7452;55.594;12.986;2022-07-29T11:23:20;1.95;;;0.95;;
14722;SDS011;7452;55.594;12.986;2022-07-29T11:28:54;3.28;;;0.95;;
14722;SDS011;7452;55.594;12.986;2022-07-29T11:31:34;1.40;;;1.00;;
14722;SDS011;7452;55.594;12.986;2022-07-29T11:34:19;6.00;;;3.58;;
14722;SDS011;7452;55.594;12.986;2022-07-29T11:39:47;1.83;;;0.90;;
14722;SDS011;7452;55.594;12.986;2022-07-29T11:45:23;2.45;;;1.30;;
14722;SDS011;7452;55.594;12.986;2022-07-29T11:47:59;1.48;;;1.05;;
14722;SDS011;7452;55.594;12.986;2022-07-29T11:50:27;2.75;;;1.02;;
14722;SDS011;7452;55.594;12.986;2022-07-29T11:53:09;6.82;;;1.27;;
14722;SDS011;7452;55.594;12.986;2022-07-29T11:55:38;4.00;;;1.05;;
14722;SDS011;7452;55.594;12.986;2022-07-29T11:58:06;3.72;;;1.30;;
14722;SDS011;7452;55.594;12.986;2022-07-29T12:00:34;2.88;;;1.13;;
14722;SDS011;7452;55.594;12.986;2022-07-29T12:03:05;5.13;;;1.90;;
14722;SDS011;7452;55.594;12.986;2022-07-29T12:05:37;1.88;;;1.10;;
14722;SDS011;7452;55.594;12.986;2022-07-29T12:08:10;3.70;;;1.00;;
14722;SDS011;7452;55.594;12.986;2022-07-29T12:10:39;2.60;;;1.00;;
14722;SDS011;7452;55.594;12.986;2022-07-29T12:13:07;4.60;;;1.35;;
14722;SDS011;7452;55.594;12.986;2022-07-29T12:15:35;3.30;;;1.40;;
14722;SDS011;7452;55.594;12.986;2022-07-29T12:18:16;3.28;;;1.17;;
14722;SDS011;7452;55.594;12.986;2022-07-29T12:20:45;2.92;;;1.30;;
14722;SDS011;7452;55.594;12.986;2022-07-29T12:23:13;5.00;;;1.13;;
14722;SDS011;7452;55.594;12.986;2022-07-29T12:25:41;2.63;;;1.40;;
14722;SDS011;7452;55.594;12.986;2022-07-29T12:28:10;3.00;;;1.27;;
14722;SDS011;7452;55.594;12.986;2022-07-29T12:30:40;3.28;;;1.33;;
14722;SDS011;7452;55.594;12.986;2022-07-29T12:33:16;2.03;;;1.33;;
14722;SDS011;7452;55.594;12.986;2022-07-29T12:35:49;1.63;;;1.17;;
14722;SDS011;7452;55.594;12.986;2022-07-29T12:38:18;3.97;;;1.38;;
14722;SDS011;7452;55.594;12.986;2022-07-29T12:40:46;2.63;;;1.20;;
14722;SDS011;7452;55.594;12.986;2022-07-29T12:43:14;2.55;;;1.08;;
14722;SDS011;7452;55.594;12.986;2022-07-29T12:45:43;2.60;;;1.15;;
14722;SDS011;7452;55.594;12.986;2022-07-29T12:48:13;4.63;;;1.23;;
14722;SDS011;7452;55.594;12.986;2022-07-29T12:50:55;4.35;;;1.40;;
14722;SDS011;7452;55.594;12.986;2022-07-29T12:53:23;2.70;;;1.20;;
14722;SDS011;7452;55.594;12.986;2022-07-29T12:55:52;2.83;;;1.33;;
14722;SDS011;7452;55.594;12.986;2022-07-29T12:58:26;2.78;;;1.20;;
14722;SDS011;7452;55.594;12.986;2022-07-29T13:01:05;4.18;;;1.30;;
14722;SDS011;7452;55.594;12.986;2022-07-29T13:03:44;3.03;;;1.35;;
14722;SDS011;7452;55.594;12.986;2022-07-29T13:06:32;3.97;;;1.77;;
14722;SDS011;7452;55.594;12.986;2022-07-29T13:09:03;3.63;;;1.33;;
14722;SDS011;7452;55.594;12.986;2022-07-29T13:11:35;2.75;;;1.30;;
14722;SDS011;7452;55.594;12.986;2022-07-29T13:14:04;2.78;;;1.10;;
14722;SDS011;7452;55.594;12.986;2022-07-29T13:16:33;3.33;;;1.20;;
14722;SDS011;7452;55.594;12.986;2022-07-29T13:19:05;3.67;;;1.42;;
14722;SDS011;7452;55.594;12.986;2022-07-29T13:21:34;2.38;;;1.40;;
14722;SDS011;7452;55.594;12.986;2022-07-29T13:24:02;3.17;;;1.23;;
14722;SDS011;7452;55.594;12.986;2022-07-29T13:26:30;4.28;;;1.45;;
14722;SDS011;7452;55.594;12.986;2022-07-29T13:28:58;4.28;;;1.33;;
14722;SDS011;7452;55.594;12.986;2022-07-29T13:31:24;2.35;;;1.30;;
14722;SDS011;7452;55.594;12.986;2022-07-29T13:33:52;3.03;;;1.23;;
14722;SDS011;7452;55.594;12.986;2022-07-29T13:36:20;2.72;;;1.20;;
14722;SDS011;7452;55.594;12.986;2022-07-29T13:38:47;2.38;;;1.05;;
14722;SDS011;7452;55.594;12.986;2022-07-29T13:41:14;2.92;;;1.40;;
14722;SDS011;7452;55.594;12.986;2022-07-29T13:43:41;3.08;;;1.17;;
14722;SDS011;7452;55.594;12.986;2022-07-29T13:46:08;3.08;;;1.20;;
14722;SDS011;7452;55.594;12.986;2022-07-29T13:48:35;1.90;;;1.00;;
14722;SDS011;7452;55.594;12.986;2022-07-29T13:51:02;2.67;;;1.30;;
14722;SDS011;7452;55.594;12.986;2022-07-29T13:53:30;4.70;;;1.20;;
14722;SDS011;7452;55.594;12.986;2022-07-29T13:55:57;3.85;;;1.30;;
14722;SDS011;7452;55.594;12.986;2022-07-29T13:58:24;5.15;;;1.88;;
14722;SDS011;7452;55.594;12.986;2022-07-29T14:00:52;3.53;;;1.35;;
14722;SDS011;7452;55.594;12.986;2022-07-29T14:03:18;2.20;;;1.23;;
14722;SDS011;7452;55.594;12.986;2022-07-29T14:05:45;3.13;;;1.10;;
14722;SDS011;7452;55.594;12.986;2022-07-29T14:08:12;3.50;;;1.40;;
14722;SDS011;7452;55.594;12.986;2022-07-29T14:10:41;2.05;;;1.10;;
14722;SDS011;7452;55.594;12.986;2022-07-29T14:13:08;3.00;;;1.20;;
14722;SDS011;7452;55.594;12.986;2022-07-29T14:15:35;4.85;;;1.27;;
14722;SDS011;7452;55.594;12.986;2022-07-29T14:18:02;2.13;;;1.15;;
14722;SDS011;7452;55.594;12.986;2022-07-29T14:20:29;5.43;;;1.00;;
14722;SDS011;7452;55.594;12.986;2022-07-29T14:22:57;3.03;;;1.10;;
14722;SDS011;7452;55.594;12.986;2022-07-29T14:25:24;4.93;;;1.50;;
14722;SDS011;7452;55.594;12.986;2022-07-29T14:27:52;3.88;;;1.25;;
14722;SDS011;7452;55.594;12.986;2022-07-29T14:30:19;3.05;;;1.27;;
14722;SDS011;7452;55.594;12.986;2022-07-29T14:32:46;2.30;;;1.38;;
14722;SDS011;7452;55.594;12.986;2022-07-29T14:35:13;2.80;;;1.42;;
14722;SDS011;7452;55.594;12.986;2022-07-29T14:37:40;3.42;;;1.25;;
14722;SDS011;7452;55.594;12.986;2022-07-29T14:40:08;2.90;;;1.20;;
14722;SDS011;7452;55.594;12.986;2022-07-29T14:42:36;3.25;;;1.10;;
14722;SDS011;7452;55.594;12.986;2022-07-29T14:45:06;2.45;;;1.25;;
14722;SDS011;7452;55.594;12.986;2022-07-29T14:47:34;2.05;;;0.90;;
14722;SDS011;7452;55.594;12.986;2022-07-29T14:50:02;2.25;;;1.27;;
14722;SDS011;7452;55.594;12.986;2022-07-29T14:52:30;3.72;;;1.23;;
14722;SDS011;7452;55.594;12.986;2022-07-29T14:54:57;2.78;;;1.30;;
14722;SDS011;7452;55.594;12.986;2022-07-29T14:57:24;1.88;;;1.20;;
14722;SDS011;7452;55.594;12.986;2022-07-29T14:59:51;2.10;;;1.08;;
14722;SDS011;7452;55.594;12.986;2022-07-29T15:02:20;1.85;;;1.10;;
14722;SDS011;7452;55.594;12.986;2022-07-29T15:04:47;3.60;;;1.20;;
14722;SDS011;7452;55.594;12.986;2022-07-29T15:07:14;2.08;;;1.00;;
14722;SDS011;7452;55.594;12.986;2022-07-29T15:09:41;2.80;;;1.20;;
14722;SDS011;7452;55.594;12.986;2022-07-29T15:12:10;1.50;;;1.00;;
14722;SDS011;7452;55.594;12.986;2022-07-29T15:14:38;1.70;;;1.20;;
14722;SDS011;7452;55.594;12.986;2022-07-29T15:17:05;1.92;;;1.20;;